sensor_id;sensor_type;location;lat;lon;timestamp;temperature;humidity
28548;DHT22;68292;49.600;8.746;2023-04-25T00:00:05;17.90;51.90
28548;DHT22;68292;49.600;8.746;2023-04-25T00:02:38;17.90;51.90
28548;DHT22;68292;49.600;8.746;2023-04-25T00:05:07;17.90;51.90
28548;DHT22;68292;49.600;8.746;2023-04-25T00:07:38;17.90;52.00
28548;DHT22;68292;49.600;8.746;2023-04-25T00:10:09;17.90;52.00
28548;DHT22;68292;49.600;8.746;2023-04-25T00:12:40;17.90;52.00
28548;DHT22;68292;49.600;8.746;2023-04-25T00:15:10;17.90;52.00
28548;DHT22;68292;49.600;8.746;2023-04-25T00:17:39;17.90;52.00
28548;DHT22;68292;49.600;8.746;2023-04-25T00:20:09;17.80;52.00
28548;DHT22;68292;49.600;8.746;2023-04-25T00:22:40;17.90;52.00
28548;DHT22;68292;49.600;8.746;2023-04-25T00:25:09;17.80;52.00
28548;DHT22;68292;49.600;8.746;2023-04-25T00:27:38;17.90;52.00
28548;DHT22;68292;49.600;8.746;2023-04-25T00:30:09;17.80;52.00
28548;DHT22;68292;49.600;8.746;2023-04-25T00:32:39;17.80;52.00
28548;DHT22;68292;49.600;8.746;2023-04-25T00:35:09;17.80;52.10
28548;DHT22;68292;49.600;8.746;2023-04-25T00:37:37;17.80;52.10
28548;DHT22;68292;49.600;8.746;2023-04-25T00:40:08;17.80;52.10
28548;DHT22;68292;49.600;8.746;2023-04-25T00:42:38;17.80;52.00
28548;DHT22;68292;49.600;8.746;2023-04-25T00:45:09;17.80;52.00
28548;DHT22;68292;49.600;8.746;2023-04-25T00:47:41;17.80;52.00
28548;DHT22;68292;49.600;8.746;2023-04-25T00:50:10;17.80;52.00
28548;DHT22;68292;49.600;8.746;2023-04-25T00:52:43;17.80;52.00
28548;DHT22;68292;49.600;8.746;2023-04-25T00:55:12;17.80;52.00
28548;DHT22;68292;49.600;8.746;2023-04-25T00:57:43;17.80;51.90
28548;DHT22;68292;49.600;8.746;2023-04-25T01:00:12;17.80;51.90
28548;DHT22;68292;49.600;8.746;2023-04-25T01:02:43;17.80;51.90
28548;DHT22;68292;49.600;8.746;2023-04-25T01:05:13;17.80;52.00
28548;DHT22;68292;49.600;8.746;2023-04-25T01:07:43;17.80;52.00
28548;DHT22;68292;49.600;8.746;2023-04-25T01:10:12;17.80;52.00
28548;DHT22;68292;49.600;8.746;2023-04-25T01:12:42;17.80;52.00
28548;DHT22;68292;49.600;8.746;2023-04-25T01:15:10;17.80;52.00
28548;DHT22;68292;49.600;8.746;2023-04-25T01:17:40;17.80;52.00
28548;DHT22;68292;49.600;8.746;2023-04-25T01:20:49;17.80;52.00
28548;DHT22;68292;49.600;8.746;2023-04-25T01:23:22;17.80;52.00
28548;DHT22;68292;49.600;8.746;2023-04-25T01:25:51;17.80;52.00
28548;DHT22;68292;49.600;8.746;2023-04-25T01:28:21;17.80;52.10
28548;DHT22;68292;49.600;8.746;2023-04-25T01:30:51;17.80;52.10
28548;DHT22;68292;49.600;8.746;2023-04-25T01:33:21;17.80;52.10
28548;DHT22;68292;49.600;8.746;2023-04-25T01:35:50;17.80;52.10
28548;DHT22;68292;49.600;8.746;2023-04-25T01:38:21;17.80;52.00
28548;DHT22;68292;49.600;8.746;2023-04-25T01:40:51;17.80;52.10
28548;DHT22;68292;49.600;8.746;2023-04-25T01:43:21;17.80;52.00
28548;DHT22;68292;49.600;8.746;2023-04-25T01:45:50;17.80;52.00
28548;DHT22;68292;49.600;8.746;2023-04-25T01:48:19;17.80;52.00
28548;DHT22;68292;49.600;8.746;2023-04-25T01:50:48;17.80;52.00
28548;DHT22;68292;49.600;8.746;2023-04-25T01:53:17;17.80;52.00
28548;DHT22;68292;49.600;8.746;2023-04-25T01:55:48;17.80;52.10
28548;DHT22;68292;49.600;8.746;2023-04-25T01:58:20;17.80;52.10
28548;DHT22;68292;49.600;8.746;2023-04-25T02:01:07;17.80;52.10
28548;DHT22;68292;49.600;8.746;2023-04-25T02:03:43;17.80;52.10
28548;DHT22;68292;49.600;8.746;2023-04-25T02:06:23;17.80;52.10
28548;DHT22;68292;49.600;8.746;2023-04-25T02:08:55;17.70;52.10
28548;DHT22;68292;49.600;8.746;2023-04-25T02:11:25;17.70;52.20
28548;DHT22;68292;49.600;8.746;2023-04-25T02:14:12;17.70;52.30
28548;DHT22;68292;49.600;8.746;2023-04-25T02:17:13;17.80;52.20
28548;DHT22;68292;49.600;8.746;2023-04-25T02:19:44;17.80;52.10
28548;DHT22;68292;49.600;8.746;2023-04-25T02:22:13;17.80;52.20
28548;DHT22;68292;49.600;8.746;2023-04-25T02:24:42;17.70;52.20
28548;DHT22;68292;49.600;8.746;2023-04-25T02:27:12;17.70;52.20
28548;DHT22;68292;49.600;8.746;2023-04-25T02:29:41;17.70;52.20
28548;DHT22;68292;49.600;8.746;2023-04-25T02:32:10;17.70;52.20
28548;DHT22;68292;49.600;8.746;2023-04-25T02:34:40;17.70;52.30
28548;DHT22;68292;49.600;8.746;2023-04-25T02:37:08;17.70;52.30
28548;DHT22;68292;49.600;8.746;2023-04-25T02:39:37;17.70;52.20
28548;DHT22;68292;49.600;8.746;2023-04-25T02:42:06;17.70;52.20
28548;DHT22;68292;49.600;8.746;2023-04-25T02:44:36;17.70;52.30
28548;DHT22;68292;49.600;8.746;2023-04-25T02:47:05;17.70;52.40
28548;DHT22;68292;49.600;8.746;2023-04-25T02:49:33;17.70;52.30
28548;DHT22;68292;49.600;8.746;2023-04-25T02:52:03;17.70;52.30
28548;DHT22;68292;49.600;8.746;2023-04-25T02:54:32;17.70;52.30
28548;DHT22;68292;49.600;8.746;2023-04-25T02:57:01;17.60;52.30
28548;DHT22;68292;49.600;8.746;2023-04-25T02:59:36;17.60;52.40
28548;DHT22;68292;49.600;8.746;2023-04-25T03:02:05;17.60;52.40
28548;DHT22;68292;49.600;8.746;2023-04-25T03:04:34;17.60;52.40
28548;DHT22;68292;49.600;8.746;2023-04-25T03:07:02;17.60;52.40
28548;DHT22;68292;49.600;8.746;2023-04-25T03:09:32;17.60;52.50
28548;DHT22;68292;49.600;8.746;2023-04-25T03:12:00;17.60;52.50
28548;DHT22;68292;49.600;8.746;2023-04-25T03:14:31;17.60;52.50
28548;DHT22;68292;49.600;8.746;2023-04-25T03:17:01;17.60;52.50
28548;DHT22;68292;49.600;8.746;2023-04-25T03:19:30;17.60;52.50
28548;DHT22;68292;49.600;8.746;2023-04-25T03:21:59;17.60;52.40
28548;DHT22;68292;49.600;8.746;2023-04-25T03:24:29;17.60;52.50
28548;DHT22;68292;49.600;8.746;2023-04-25T03:26:58;17.60;52.50
28548;DHT22;68292;49.600;8.746;2023-04-25T03:29:27;17.60;52.50
28548;DHT22;68292;49.600;8.746;2023-04-25T03:31:57;17.60;52.50
28548;DHT22;68292;49.600;8.746;2023-04-25T03:34:28;17.60;52.50
28548;DHT22;68292;49.600;8.746;2023-04-25T03:36:56;17.60;52.50
28548;DHT22;68292;49.600;8.746;2023-04-25T03:39:25;17.60;52.50
28548;DHT22;68292;49.600;8.746;2023-04-25T03:41:56;17.60;52.50
28548;DHT22;68292;49.600;8.746;2023-04-25T03:44:27;17.60;52.50
28548;DHT22;68292;49.600;8.746;2023-04-25T03:46:57;17.60;52.50
28548;DHT22;68292;49.600;8.746;2023-04-25T03:49:25;17.60;52.50
28548;DHT22;68292;49.600;8.746;2023-04-25T03:52:01;17.60;52.50
28548;DHT22;68292;49.600;8.746;2023-04-25T03:54:35;17.60;52.60
28548;DHT22;68292;49.600;8.746;2023-04-25T03:57:16;17.60;52.60
28548;DHT22;68292;49.600;8.746;2023-04-25T03:59:45;17.60;52.50
28548;DHT22;68292;49.600;8.746;2023-04-25T04:02:15;17.60;52.50
28548;DHT22;68292;49.600;8.746;2023-04-25T04:04:44;17.60;52.50
28548;DHT22;68292;49.600;8.746;2023-04-25T04:07:15;17.60;53.10
28548;DHT22;68292;49.600;8.746;2023-04-25T04:09:47;17.60;52.50
28548;DHT22;68292;49.600;8.746;2023-04-25T04:12:23;17.60;52.60
28548;DHT22;68292;49.600;8.746;2023-04-25T04:14:52;17.60;52.60
28548;DHT22;68292;49.600;8.746;2023-04-25T04:17:21;17.60;52.60
28548;DHT22;68292;49.600;8.746;2023-04-25T04:19:51;17.60;52.60
28548;DHT22;68292;49.600;8.746;2023-04-25T04:22:22;17.60;52.60
28548;DHT22;68292;49.600;8.746;2023-04-25T04:24:54;17.60;52.70
28548;DHT22;68292;49.600;8.746;2023-04-25T04:27:44;17.60;52.70
28548;DHT22;68292;49.600;8.746;2023-04-25T04:30:25;17.60;52.60
28548;DHT22;68292;49.600;8.746;2023-04-25T04:32:59;17.60;52.60
28548;DHT22;68292;49.600;8.746;2023-04-25T04:35:29;17.60;52.70
28548;DHT22;68292;49.600;8.746;2023-04-25T04:37:59;17.60;52.80
28548;DHT22;68292;49.600;8.746;2023-04-25T04:40:33;17.60;52.80
28548;DHT22;68292;49.600;8.746;2023-04-25T04:43:24;17.60;52.80
28548;DHT22;68292;49.600;8.746;2023-04-25T04:45:53;17.60;52.80
28548;DHT22;68292;49.600;8.746;2023-04-25T04:48:54;17.60;52.80
28548;DHT22;68292;49.600;8.746;2023-04-25T04:51:43;17.60;52.80
28548;DHT22;68292;49.600;8.746;2023-04-25T04:54:35;17.60;52.80
28548;DHT22;68292;49.600;8.746;2023-04-25T04:57:23;17.60;52.80
28548;DHT22;68292;49.600;8.746;2023-04-25T05:00:12;17.60;52.80
28548;DHT22;68292;49.600;8.746;2023-04-25T05:03:03;17.60;52.80
28548;DHT22;68292;49.600;8.746;2023-04-25T05:06:11;17.60;52.80
28548;DHT22;68292;49.600;8.746;2023-04-25T05:08:49;17.60;52.80
28548;DHT22;68292;49.600;8.746;2023-04-25T05:11:19;17.60;52.80
28548;DHT22;68292;49.600;8.746;2023-04-25T05:13:58;17.50;52.90
28548;DHT22;68292;49.600;8.746;2023-04-25T05:16:45;17.50;52.90
28548;DHT22;68292;49.600;8.746;2023-04-25T05:19:30;17.60;52.90
28548;DHT22;68292;49.600;8.746;2023-04-25T05:22:17;17.50;52.90
28548;DHT22;68292;49.600;8.746;2023-04-25T05:25:08;17.50;52.90
28548;DHT22;68292;49.600;8.746;2023-04-25T05:27:57;17.60;53.00
28548;DHT22;68292;49.600;8.746;2023-04-25T05:30:44;17.60;53.10
28548;DHT22;68292;49.600;8.746;2023-04-25T05:33:19;17.50;53.10
28548;DHT22;68292;49.600;8.746;2023-04-25T05:35:49;17.60;53.10
28548;DHT22;68292;49.600;8.746;2023-04-25T05:38:18;17.60;53.20
28548;DHT22;68292;49.600;8.746;2023-04-25T05:41:05;17.60;53.10
28548;DHT22;68292;49.600;8.746;2023-04-25T05:43:45;17.60;53.10
28548;DHT22;68292;49.600;8.746;2023-04-25T05:46:31;17.60;53.20
28548;DHT22;68292;49.600;8.746;2023-04-25T05:49:15;17.60;53.10
28548;DHT22;68292;49.600;8.746;2023-04-25T05:52:04;17.60;53.20
28548;DHT22;68292;49.600;8.746;2023-04-25T05:54:55;17.60;53.20
28548;DHT22;68292;49.600;8.746;2023-04-25T05:57:26;17.60;53.20
28548;DHT22;68292;49.600;8.746;2023-04-25T05:59:57;17.60;53.20
28548;DHT22;68292;49.600;8.746;2023-04-25T06:02:39;17.60;53.30
28548;DHT22;68292;49.600;8.746;2023-04-25T06:05:10;17.60;53.20
28548;DHT22;68292;49.600;8.746;2023-04-25T06:07:39;17.60;53.30
28548;DHT22;68292;49.600;8.746;2023-04-25T06:10:08;17.60;53.30
28548;DHT22;68292;49.600;8.746;2023-04-25T06:12:38;17.60;53.30
28548;DHT22;68292;49.600;8.746;2023-04-25T06:15:09;17.60;53.30
28548;DHT22;68292;49.600;8.746;2023-04-25T06:17:54;17.60;53.40
28548;DHT22;68292;49.600;8.746;2023-04-25T06:20:23;17.60;53.30
28548;DHT22;68292;49.600;8.746;2023-04-25T06:22:55;17.60;53.30
28548;DHT22;68292;49.600;8.746;2023-04-25T06:25:33;17.60;53.40
28548;DHT22;68292;49.600;8.746;2023-04-25T06:28:03;17.60;53.40
28548;DHT22;68292;49.600;8.746;2023-04-25T06:30:33;17.60;53.30
28548;DHT22;68292;49.600;8.746;2023-04-25T06:33:07;17.60;53.20
28548;DHT22;68292;49.600;8.746;2023-04-25T06:35:38;17.60;53.10
28548;DHT22;68292;49.600;8.746;2023-04-25T06:38:10;17.60;52.90
28548;DHT22;68292;49.600;8.746;2023-04-25T06:40:40;17.60;52.80
28548;DHT22;68292;49.600;8.746;2023-04-25T06:43:10;17.60;52.70
28548;DHT22;68292;49.600;8.746;2023-04-25T06:45:54;17.60;52.70
28548;DHT22;68292;49.600;8.746;2023-04-25T06:48:25;17.60;52.60
28548;DHT22;68292;49.600;8.746;2023-04-25T06:50:54;17.60;52.50
28548;DHT22;68292;49.600;8.746;2023-04-25T06:53:24;17.60;52.50
28548;DHT22;68292;49.600;8.746;2023-04-25T06:55:59;17.60;52.60
28548;DHT22;68292;49.600;8.746;2023-04-25T06:58:43;17.60;52.50
28548;DHT22;68292;49.600;8.746;2023-04-25T07:01:21;17.60;52.50
28548;DHT22;68292;49.600;8.746;2023-04-25T07:03:50;17.60;52.50
28548;DHT22;68292;49.600;8.746;2023-04-25T07:06:19;17.60;52.40
28548;DHT22;68292;49.600;8.746;2023-04-25T07:08:48;17.60;52.00
28548;DHT22;68292;49.600;8.746;2023-04-25T07:11:17;17.60;52.10
28548;DHT22;68292;49.600;8.746;2023-04-25T07:13:46;17.60;52.00
28548;DHT22;68292;49.600;8.746;2023-04-25T07:16:16;17.60;51.90
28548;DHT22;68292;49.600;8.746;2023-04-25T07:18:47;17.60;51.70
28548;DHT22;68292;49.600;8.746;2023-04-25T07:21:16;17.60;51.90
28548;DHT22;68292;49.600;8.746;2023-04-25T07:23:47;17.60;51.90
28548;DHT22;68292;49.600;8.746;2023-04-25T07:26:20;17.50;51.70
28548;DHT22;68292;49.600;8.746;2023-04-25T07:29:08;17.50;51.60
28548;DHT22;68292;49.600;8.746;2023-04-25T07:31:37;17.50;51.60
28548;DHT22;68292;49.600;8.746;2023-04-25T07:34:08;17.50;51.50
28548;DHT22;68292;49.600;8.746;2023-04-25T07:36:38;17.50;51.60
28548;DHT22;68292;49.600;8.746;2023-04-25T07:39:07;17.50;51.50
28548;DHT22;68292;49.600;8.746;2023-04-25T07:41:36;17.50;51.40
28548;DHT22;68292;49.600;8.746;2023-04-25T07:44:06;17.50;51.50
28548;DHT22;68292;49.600;8.746;2023-04-25T07:46:35;17.50;51.40
28548;DHT22;68292;49.600;8.746;2023-04-25T07:49:05;17.50;51.40
28548;DHT22;68292;49.600;8.746;2023-04-25T07:51:36;17.50;51.20
28548;DHT22;68292;49.600;8.746;2023-04-25T07:54:09;17.50;51.10
28548;DHT22;68292;49.600;8.746;2023-04-25T07:56:43;17.50;51.20
28548;DHT22;68292;49.600;8.746;2023-04-25T07:59:26;17.50;51.10
28548;DHT22;68292;49.600;8.746;2023-04-25T08:01:59;17.50;51.10
28548;DHT22;68292;49.600;8.746;2023-04-25T08:04:29;17.50;51.10
28548;DHT22;68292;49.600;8.746;2023-04-25T08:07:03;17.50;51.20
28548;DHT22;68292;49.600;8.746;2023-04-25T08:09:41;17.50;51.20
28548;DHT22;68292;49.600;8.746;2023-04-25T08:12:17;17.50;51.20
28548;DHT22;68292;49.600;8.746;2023-04-25T08:14:50;17.50;51.30
28548;DHT22;68292;49.600;8.746;2023-04-25T08:17:19;17.50;51.40
28548;DHT22;68292;49.600;8.746;2023-04-25T08:19:49;17.60;51.60
28548;DHT22;68292;49.600;8.746;2023-04-25T08:22:26;17.60;51.70
28548;DHT22;68292;49.600;8.746;2023-04-25T08:25:11;17.60;51.70
28548;DHT22;68292;49.600;8.746;2023-04-25T08:27:40;17.60;51.80
28548;DHT22;68292;49.600;8.746;2023-04-25T08:30:10;17.70;51.60
28548;DHT22;68292;49.600;8.746;2023-04-25T08:32:41;17.70;51.70
28548;DHT22;68292;49.600;8.746;2023-04-25T08:35:42;17.70;51.50
28548;DHT22;68292;49.600;8.746;2023-04-25T08:38:15;17.80;51.40
28548;DHT22;68292;49.600;8.746;2023-04-25T08:40:44;17.80;51.20
28548;DHT22;68292;49.600;8.746;2023-04-25T08:43:17;17.90;51.40
28548;DHT22;68292;49.600;8.746;2023-04-25T08:45:47;17.90;51.50
28548;DHT22;68292;49.600;8.746;2023-04-25T08:48:32;17.90;51.50
28548;DHT22;68292;49.600;8.746;2023-04-25T08:51:07;18.00;51.40
28548;DHT22;68292;49.600;8.746;2023-04-25T08:53:42;18.00;51.20
28548;DHT22;68292;49.600;8.746;2023-04-25T08:56:16;18.00;51.20
28548;DHT22;68292;49.600;8.746;2023-04-25T08:58:48;18.10;51.00
28548;DHT22;68292;49.600;8.746;2023-04-25T09:01:18;18.10;51.10
28548;DHT22;68292;49.600;8.746;2023-04-25T09:03:52;18.10;51.20
28548;DHT22;68292;49.600;8.746;2023-04-25T09:06:21;18.10;51.10
28548;DHT22;68292;49.600;8.746;2023-04-25T09:08:53;18.10;51.10
28548;DHT22;68292;49.600;8.746;2023-04-25T09:11:21;18.10;51.20
28548;DHT22;68292;49.600;8.746;2023-04-25T09:14:10;18.20;51.80
28548;DHT22;68292;49.600;8.746;2023-04-25T09:17:04;18.20;50.90
28548;DHT22;68292;49.600;8.746;2023-04-25T09:19:43;18.20;50.80
28548;DHT22;68292;49.600;8.746;2023-04-25T09:22:33;18.20;50.90
28548;DHT22;68292;49.600;8.746;2023-04-25T09:25:08;18.20;50.90
28548;DHT22;68292;49.600;8.746;2023-04-25T09:27:49;18.20;50.60
28548;DHT22;68292;49.600;8.746;2023-04-25T09:30:29;18.20;50.50
28548;DHT22;68292;49.600;8.746;2023-04-25T09:33:18;18.30;50.60
28548;DHT22;68292;49.600;8.746;2023-04-25T09:35:50;18.30;50.70
28548;DHT22;68292;49.600;8.746;2023-04-25T09:38:45;18.30;50.70
28548;DHT22;68292;49.600;8.746;2023-04-25T09:41:24;18.30;50.60
28548;DHT22;68292;49.600;8.746;2023-04-25T09:43:57;18.30;50.50
28548;DHT22;68292;49.600;8.746;2023-04-25T09:46:33;18.30;50.60
28548;DHT22;68292;49.600;8.746;2023-04-25T09:49:06;18.30;50.80
28548;DHT22;68292;49.600;8.746;2023-04-25T09:51:56;18.30;50.80
28548;DHT22;68292;49.600;8.746;2023-04-25T09:54:30;18.30;50.80
28548;DHT22;68292;49.600;8.746;2023-04-25T09:57:13;18.30;51.10
28548;DHT22;68292;49.600;8.746;2023-04-25T09:59:44;18.40;51.40
28548;DHT22;68292;49.600;8.746;2023-04-25T10:02:16;18.40;51.80
28548;DHT22;68292;49.600;8.746;2023-04-25T10:04:49;18.50;51.60
28548;DHT22;68292;49.600;8.746;2023-04-25T10:07:40;18.60;51.90
28548;DHT22;68292;49.600;8.746;2023-04-25T10:10:14;18.70;52.10
28548;DHT22;68292;49.600;8.746;2023-04-25T10:12:44;18.90;52.30
28548;DHT22;68292;49.600;8.746;2023-04-25T10:15:14;19.10;52.30
28548;DHT22;68292;49.600;8.746;2023-04-25T10:17:43;19.20;52.30
28548;DHT22;68292;49.600;8.746;2023-04-25T10:20:13;19.40;52.30
28548;DHT22;68292;49.600;8.746;2023-04-25T10:22:44;19.70;52.00
28548;DHT22;68292;49.600;8.746;2023-04-25T10:25:15;19.80;51.30
28548;DHT22;68292;49.600;8.746;2023-04-25T10:27:45;20.00;51.00
28548;DHT22;68292;49.600;8.746;2023-04-25T10:30:14;20.10;50.40
28548;DHT22;68292;49.600;8.746;2023-04-25T10:32:44;20.30;50.10
28548;DHT22;68292;49.600;8.746;2023-04-25T10:35:15;20.30;49.80
28548;DHT22;68292;49.600;8.746;2023-04-25T10:38:01;20.30;49.30
28548;DHT22;68292;49.600;8.746;2023-04-25T10:40:32;20.40;48.90
28548;DHT22;68292;49.600;8.746;2023-04-25T10:43:36;20.40;49.10
28548;DHT22;68292;49.600;8.746;2023-04-25T10:46:22;20.40;49.30
28548;DHT22;68292;49.600;8.746;2023-04-25T10:48:53;20.40;48.60
28548;DHT22;68292;49.600;8.746;2023-04-25T10:51:24;20.40;48.60
28548;DHT22;68292;49.600;8.746;2023-04-25T10:54:08;20.30;48.40
28548;DHT22;68292;49.600;8.746;2023-04-25T10:56:39;20.30;48.30
28548;DHT22;68292;49.600;8.746;2023-04-25T10:59:16;20.20;48.30
28548;DHT22;68292;49.600;8.746;2023-04-25T11:01:46;20.20;48.00
28548;DHT22;68292;49.600;8.746;2023-04-25T11:04:20;20.10;48.20
28548;DHT22;68292;49.600;8.746;2023-04-25T11:07:07;20.10;47.80
28548;DHT22;68292;49.600;8.746;2023-04-25T11:09:40;20.00;47.80
28548;DHT22;68292;49.600;8.746;2023-04-25T11:12:09;20.00;48.00
28548;DHT22;68292;49.600;8.746;2023-04-25T11:14:40;19.90;48.10
28548;DHT22;68292;49.600;8.746;2023-04-25T11:17:09;19.80;47.90
28548;DHT22;68292;49.600;8.746;2023-04-25T11:19:48;19.80;48.10
28548;DHT22;68292;49.600;8.746;2023-04-25T11:22:17;19.70;47.70
28548;DHT22;68292;49.600;8.746;2023-04-25T11:24:45;19.70;48.00
28548;DHT22;68292;49.600;8.746;2023-04-25T11:27:14;19.70;47.90
28548;DHT22;68292;49.600;8.746;2023-04-25T11:29:44;19.60;47.80
28548;DHT22;68292;49.600;8.746;2023-04-25T11:32:15;19.50;47.70
28548;DHT22;68292;49.600;8.746;2023-04-25T11:34:47;19.50;47.80
28548;DHT22;68292;49.600;8.746;2023-04-25T11:37:16;19.50;47.70
28548;DHT22;68292;49.600;8.746;2023-04-25T11:39:45;19.40;47.70
28548;DHT22;68292;49.600;8.746;2023-04-25T11:42:14;19.30;47.50
28548;DHT22;68292;49.600;8.746;2023-04-25T11:44:45;19.30;47.60
28548;DHT22;68292;49.600;8.746;2023-04-25T11:47:13;19.30;47.50
28548;DHT22;68292;49.600;8.746;2023-04-25T11:49:42;19.20;47.90
28548;DHT22;68292;49.600;8.746;2023-04-25T11:52:11;19.20;47.90
28548;DHT22;68292;49.600;8.746;2023-04-25T11:54:40;19.20;48.60
28548;DHT22;68292;49.600;8.746;2023-04-25T11:57:09;19.10;48.00
28548;DHT22;68292;49.600;8.746;2023-04-25T11:59:37;19.10;48.20
28548;DHT22;68292;49.600;8.746;2023-04-25T12:02:07;19.10;48.90
28548;DHT22;68292;49.600;8.746;2023-04-25T12:04:36;19.10;48.20
28548;DHT22;68292;49.600;8.746;2023-04-25T12:07:10;19.10;48.30
28548;DHT22;68292;49.600;8.746;2023-04-25T12:09:38;19.00;48.10
28548;DHT22;68292;49.600;8.746;2023-04-25T12:12:10;19.10;48.40
28548;DHT22;68292;49.600;8.746;2023-04-25T12:14:38;19.10;48.30
28548;DHT22;68292;49.600;8.746;2023-04-25T12:17:09;19.10;48.30
28548;DHT22;68292;49.600;8.746;2023-04-25T12:19:39;19.10;48.00
28548;DHT22;68292;49.600;8.746;2023-04-25T12:22:20;19.10;48.10
28548;DHT22;68292;49.600;8.746;2023-04-25T12:24:49;19.10;47.80
28548;DHT22;68292;49.600;8.746;2023-04-25T12:27:20;19.10;48.10
28548;DHT22;68292;49.600;8.746;2023-04-25T12:29:52;19.10;48.10
28548;DHT22;68292;49.600;8.746;2023-04-25T12:32:24;19.10;48.00
28548;DHT22;68292;49.600;8.746;2023-04-25T12:34:53;19.10;48.10
28548;DHT22;68292;49.600;8.746;2023-04-25T12:37:22;19.10;48.10
28548;DHT22;68292;49.600;8.746;2023-04-25T12:39:50;19.10;48.30
28548;DHT22;68292;49.600;8.746;2023-04-25T12:42:19;19.10;48.40
28548;DHT22;68292;49.600;8.746;2023-04-25T12:44:48;19.10;48.20
28548;DHT22;68292;49.600;8.746;2023-04-25T12:47:16;19.10;48.20
28548;DHT22;68292;49.600;8.746;2023-04-25T12:49:47;19.10;48.20
28548;DHT22;68292;49.600;8.746;2023-04-25T12:52:15;19.10;47.90
28548;DHT22;68292;49.600;8.746;2023-04-25T12:54:44;19.10;48.10
28548;DHT22;68292;49.600;8.746;2023-04-25T12:57:13;19.10;48.10
28548;DHT22;68292;49.600;8.746;2023-04-25T12:59:41;19.10;47.90
28548;DHT22;68292;49.600;8.746;2023-04-25T13:02:10;19.10;47.90
28548;DHT22;68292;49.600;8.746;2023-04-25T13:04:39;19.10;47.80
28548;DHT22;68292;49.600;8.746;2023-04-25T13:07:09;19.10;47.80
28548;DHT22;68292;49.600;8.746;2023-04-25T13:09:38;19.10;47.70
28548;DHT22;68292;49.600;8.746;2023-04-25T13:12:07;19.10;47.80
28548;DHT22;68292;49.600;8.746;2023-04-25T13:14:35;19.10;47.80
28548;DHT22;68292;49.600;8.746;2023-04-25T13:17:04;19.10;47.70
28548;DHT22;68292;49.600;8.746;2023-04-25T13:19:33;19.10;47.60
28548;DHT22;68292;49.600;8.746;2023-04-25T13:22:02;19.10;47.50
28548;DHT22;68292;49.600;8.746;2023-04-25T13:24:32;19.10;47.60
28548;DHT22;68292;49.600;8.746;2023-04-25T13:27:01;19.10;47.40
28548;DHT22;68292;49.600;8.746;2023-04-25T13:29:30;19.10;47.40
28548;DHT22;68292;49.600;8.746;2023-04-25T13:32:01;19.10;47.50
28548;DHT22;68292;49.600;8.746;2023-04-25T13:34:30;19.10;47.50
28548;DHT22;68292;49.600;8.746;2023-04-25T13:36:59;19.10;47.20
28548;DHT22;68292;49.600;8.746;2023-04-25T13:39:28;19.10;47.20
28548;DHT22;68292;49.600;8.746;2023-04-25T13:41:58;19.10;47.20
28548;DHT22;68292;49.600;8.746;2023-04-25T13:44:27;19.00;47.00
28548;DHT22;68292;49.600;8.746;2023-04-25T13:46:56;19.10;47.30
28548;DHT22;68292;49.600;8.746;2023-04-25T13:49:24;19.00;47.20
28548;DHT22;68292;49.600;8.746;2023-04-25T13:51:53;19.00;47.20
28548;DHT22;68292;49.600;8.746;2023-04-25T13:54:22;19.00;47.20
28548;DHT22;68292;49.600;8.746;2023-04-25T13:56:50;19.00;47.20
28548;DHT22;68292;49.600;8.746;2023-04-25T13:59:23;19.00;47.20
28548;DHT22;68292;49.600;8.746;2023-04-25T14:01:54;19.00;46.90
28548;DHT22;68292;49.600;8.746;2023-04-25T14:04:23;19.00;47.10
28548;DHT22;68292;49.600;8.746;2023-04-25T14:06:53;19.00;47.00
28548;DHT22;68292;49.600;8.746;2023-04-25T14:09:22;19.00;47.00
28548;DHT22;68292;49.600;8.746;2023-04-25T14:11:52;19.00;47.00
28548;DHT22;68292;49.600;8.746;2023-04-25T14:14:23;19.00;46.90
28548;DHT22;68292;49.600;8.746;2023-04-25T14:16:52;19.00;46.90
28548;DHT22;68292;49.600;8.746;2023-04-25T14:19:22;19.00;47.00
28548;DHT22;68292;49.600;8.746;2023-04-25T14:21:51;19.00;46.90
28548;DHT22;68292;49.600;8.746;2023-04-25T14:24:20;19.00;46.90
28548;DHT22;68292;49.600;8.746;2023-04-25T14:26:48;19.00;46.80
28548;DHT22;68292;49.600;8.746;2023-04-25T14:29:17;19.00;46.90
28548;DHT22;68292;49.600;8.746;2023-04-25T14:31:47;19.00;46.90
28548;DHT22;68292;49.600;8.746;2023-04-25T14:34:16;19.00;46.80
28548;DHT22;68292;49.600;8.746;2023-04-25T14:36:45;19.00;46.80
28548;DHT22;68292;49.600;8.746;2023-04-25T14:39:13;19.00;46.70
28548;DHT22;68292;49.600;8.746;2023-04-25T14:41:43;19.00;46.70
28548;DHT22;68292;49.600;8.746;2023-04-25T14:44:12;19.00;46.70
28548;DHT22;68292;49.600;8.746;2023-04-25T14:46:41;19.00;46.70
28548;DHT22;68292;49.600;8.746;2023-04-25T14:49:11;19.00;46.50
28548;DHT22;68292;49.600;8.746;2023-04-25T14:51:39;19.00;46.60
28548;DHT22;68292;49.600;8.746;2023-04-25T14:54:08;19.00;46.50
28548;DHT22;68292;49.600;8.746;2023-04-25T14:56:38;19.00;46.50
28548;DHT22;68292;49.600;8.746;2023-04-25T14:59:06;18.90;46.40
28548;DHT22;68292;49.600;8.746;2023-04-25T15:01:35;18.90;46.60
28548;DHT22;68292;49.600;8.746;2023-04-25T15:04:04;19.00;46.50
28548;DHT22;68292;49.600;8.746;2023-04-25T15:06:35;19.00;46.60
28548;DHT22;68292;49.600;8.746;2023-04-25T15:09:04;18.90;46.50
28548;DHT22;68292;49.600;8.746;2023-04-25T15:11:33;18.90;46.40
28548;DHT22;68292;49.600;8.746;2023-04-25T15:14:02;18.90;46.40
28548;DHT22;68292;49.600;8.746;2023-04-25T15:16:30;18.90;46.30
28548;DHT22;68292;49.600;8.746;2023-04-25T15:18:59;18.90;46.30
28548;DHT22;68292;49.600;8.746;2023-04-25T15:21:31;18.90;46.20
28548;DHT22;68292;49.600;8.746;2023-04-25T15:24:01;18.90;46.10
28548;DHT22;68292;49.600;8.746;2023-04-25T15:26:29;18.90;46.10
28548;DHT22;68292;49.600;8.746;2023-04-25T15:28:58;18.90;46.00
28548;DHT22;68292;49.600;8.746;2023-04-25T15:31:27;18.90;46.00
28548;DHT22;68292;49.600;8.746;2023-04-25T15:33:55;18.90;46.00
28548;DHT22;68292;49.600;8.746;2023-04-25T15:36:24;18.90;46.00
28548;DHT22;68292;49.600;8.746;2023-04-25T15:38:53;18.90;46.30
28548;DHT22;68292;49.600;8.746;2023-04-25T15:41:24;18.90;46.20
28548;DHT22;68292;49.600;8.746;2023-04-25T15:43:53;18.80;46.30
28548;DHT22;68292;49.600;8.746;2023-04-25T15:46:21;18.80;46.20
28548;DHT22;68292;49.600;8.746;2023-04-25T15:48:50;18.80;46.00
28548;DHT22;68292;49.600;8.746;2023-04-25T15:51:19;18.80;46.10
28548;DHT22;68292;49.600;8.746;2023-04-25T15:53:47;18.80;46.00
28548;DHT22;68292;49.600;8.746;2023-04-25T15:56:17;18.80;45.90
28548;DHT22;68292;49.600;8.746;2023-04-25T15:58:47;18.80;45.70
28548;DHT22;68292;49.600;8.746;2023-04-25T16:01:16;18.80;45.70
28548;DHT22;68292;49.600;8.746;2023-04-25T16:03:44;18.80;45.60